Terminal Aerodrome Forecast
Issued by NWS

Home | Current Version | Previous Version | Graphics & Text | Print | Product List | Glossary On
Versions: 1 2 3 4 5 6 7 8 9 10 11 12 13 14
381
FTUS43 KMPX 052335
TAFRWF
TAF
KRWF 052335Z 0600/0624 23007KT P6SM SCT016 OVC035
      TEMPO 0600/0604 BKN016 BKN025
     FM060400 26007KT P6SM FEW150
     FM061700 21014G22KT P6SM BKN150=

USA.gov is the U.S. government's official web portal to all federal, state and local government web resources and services.